Map

Track Data

SID SEASON NUMBER BASIN SUBBASIN NAME ISO_TIME NATURE LAT LON WMO_WIND WMO_PRES WMO_AGENCY TRACK_TYPE DIST2LAND LANDFALL IFLAG USA_AGENCY USA_ATCF_ID USA_LAT USA_LON USA_RECORD USA_STATUS USA_WIND USA_PRES USA_SSHS USA_R34_NE USA_R34_SE USA_R34_SW USA_R34_NW USA_R50_NE USA_R50_SE USA_R50_SW USA_R50_NW USA_R64_NE USA_R64_SE USA_R64_SW USA_R64_NW USA_POCI USA_ROCI USA_RMW USA_EYE TOKYO_LAT TOKYO_LON TOKYO_GRADE TOKYO_WIND TOKYO_PRES TOKYO_R50_DIR TOKYO_R50_LONG TOKYO_R50_SHORT TOKYO_R30_DIR TOKYO_R30_LONG TOKYO_R30_SHORT TOKYO_LAND CMA_LAT CMA_LON CMA_CAT CMA_WIND CMA_PRES HKO_LAT HKO_LON HKO_CAT HKO_WIND HKO_PRES NEWDELHI_LAT NEWDELHI_LON NEWDELHI_GRADE NEWDELHI_WIND NEWDELHI_PRES NEWDELHI_CI NEWDELHI_DP NEWDELHI_POCI REUNION_LAT REUNION_LON REUNION_TYPE REUNION_WIND REUNION_PRES REUNION_TNUM REUNION_CI REUNION_RMW REUNION_R34_NE REUNION_R34_SE REUNION_R34_SW REUNION_R34_NW REUNION_R50_NE REUNION_R50_SE REUNION_R50_SW REUNION_R50_NW REUNION_R64_NE REUNION_R64_SE REUNION_R64_SW REUNION_R64_NW BOM_LAT BOM_LON BOM_TYPE BOM_WIND BOM_PRES BOM_TNUM BOM_CI BOM_RMW BOM_R34_NE BOM_R34_SE BOM_R34_SW BOM_R34_NW BOM_R50_NE BOM_R50_SE BOM_R50_SW BOM_R50_NW BOM_R64_NE BOM_R64_SE BOM_R64_SW BOM_R64_NW BOM_ROCI BOM_POCI BOM_EYE BOM_POS_METHOD BOM_PRES_METHOD NADI_LAT NADI_LON NADI_CAT NADI_WIND NADI_PRES WELLINGTON_LAT WELLINGTON_LON WELLINGTON_WIND WELLINGTON_PRES DS824_LAT DS824_LON DS824_STAGE DS824_WIND DS824_PRES TD9636_LAT TD9636_LON TD9636_STAGE TD9636_WIND TD9636_PRES TD9635_LAT TD9635_LON TD9635_WIND TD9635_PRES TD9635_ROCI NEUMANN_LAT NEUMANN_LON NEUMANN_CLASS NEUMANN_WIND NEUMANN_PRES MLC_LAT MLC_LON MLC_CLASS MLC_WIND MLC_PRES USA_GUST BOM_GUST BOM_GUST_PER REUNION_GUST REUNION_GUST_PER USA_SEAHGT USA_SEARAD_NE USA_SEARAD_SE USA_SEARAD_SW USA_SEARAD_NW STORM_SPEED STORM_DIR
1920269N25277 1920 44 NA GM NOT_NAMED 1920-09-25 06:00:00 TS 25.0000 -83.0000 25 hurdat_atl main 164 164 O_____________ hurdat_atl AL051920 25.0000 -83.0000 TD 25 -1 6 269
1920269N25277 1920 44 NA GM NOT_NAMED 1920-09-25 09:00:00 TS 24.9927 -83.3525 main 197 197 P_____________ AL051920 24.9927 -83.3525 TD 25 -1 6 270
1920269N25277 1920 44 NA GM NOT_NAMED 1920-09-25 12:00:00 TS 25.0000 -83.7000 25 hurdat_atl main 224 224 O_____________ hurdat_atl AL051920 25.0000 -83.7000 TD 25 -1 6 274
1920269N25277 1920 44 NA GM NOT_NAMED 1920-09-25 15:00:00 TS 25.0349 -84.0425 main 242 242 P_____________ AL051920 25.0349 -84.0425 TD 25 -1 6 279
1920269N25277 1920 44 NA GM NOT_NAMED 1920-09-25 18:00:00 TS 25.1000 -84.4000 25 hurdat_atl main 265 265 O_____________ hurdat_atl AL051920 25.1000 -84.4000 TD 25 -1 7 284
1920269N25277 1920 44 NA GM NOT_NAMED 1920-09-25 21:00:00 TS 25.2000 -84.7999 main 290 290 P_____________ AL051920 25.2000 -84.7999 TD 25 -1 8 285
1920269N25277 1920 44 NA GM NOT_NAMED 1920-09-26 00:00:00 TS 25.3000 -85.2000 25 hurdat_atl main 315 315 O_____________ hurdat_atl AL051920 25.3000 -85.2000 TD 25 -1 7 283
1920269N25277 1920 44 NA GM NOT_NAMED 1920-09-26 03:00:00 TS 25.3574 -85.5651 main 342 342 P_____________ AL051920 25.3574 -85.5651 TD 25 -1 6 279
1920269N25277 1920 44 NA GM NOT_NAMED 1920-09-26 06:00:00 TS 25.4000 -85.9000 25 hurdat_atl main 358 358 O_____________ hurdat_atl AL051920 25.4000 -85.9000 TD 25 -1 6 280
1920269N25277 1920 44 NA GM NOT_NAMED 1920-09-26 09:00:00 TS 25.4574 -86.2150 main 384 384 P_____________ AL051920 25.4574 -86.2150 TD 27 -1 6 280
1920269N25277 1920 44 NA GM NOT_NAMED 1920-09-26 12:00:00 TS 25.5000 -86.5000 30 hurdat_atl main 402 402 O_____________ hurdat_atl AL051920 25.5000 -86.5000 TD 30 -1 5 277
1920269N25277 1920 44 NA GM NOT_NAMED 1920-09-26 15:00:00 TS 25.5150 -86.7650 main 422 422 P_____________ AL051920 25.5150 -86.7650 TD 30 -1 5 270
1920269N25277 1920 44 NA GM NOT_NAMED 1920-09-26 18:00:00 TS 25.5000 -87.0000 30 hurdat_atl main 436 433 O_____________ hurdat_atl AL051920 25.5000 -87.0000 TD 30 -1 4 262
1920269N25277 1920 44 NA GM NOT_NAMED 1920-09-26 21:00:00 TS 25.4575 -87.2150 main 433 433 P_____________ AL051920 25.4575 -87.2150 TD 30 -1 4 254
1920269N25277 1920 44 NA GM NOT_NAMED 1920-09-27 00:00:00 TS 25.4000 -87.4000 30 hurdat_atl main 435 431 O_____________ hurdat_atl AL051920 25.4000 -87.4000 TD 30 -1 3 251
1920269N25277 1920 44 NA GM NOT_NAMED 1920-09-27 03:00:00 TS 25.3500 -87.5575 main 424 424 P_____________ AL051920 25.3500 -87.5575 TD 30 -1 3 250
1920269N25277 1920 44 NA GM NOT_NAMED 1920-09-27 06:00:00 TS 25.3000 -87.7000 30 hurdat_atl main 424 424 O_____________ hurdat_atl AL051920 25.3000 -87.7000 TD 30 -1 3 249
1920269N25277 1920 44 NA GM NOT_NAMED 1920-09-27 09:00:00 TS 25.2500 -87.8500 main 413 413 P_____________ AL051920 25.2500 -87.8500 TD 32 -1 3 250
1920269N25277 1920 44 NA GM NOT_NAMED 1920-09-27 12:00:00 TS 25.2000 -88.0000 35 hurdat_atl main 413 413 O_____________ hurdat_atl AL051920 25.2000 -88.0000 TS 35 0 3 250
1920269N25277 1920 44 NA GM NOT_NAMED 1920-09-27 15:00:00 TS 25.1500 -88.1575 main 413 402 P_____________ AL051920 25.1500 -88.1575 TS 35 0 3 250
1920269N25277 1920 44 NA GM NOT_NAMED 1920-09-27 18:00:00 TS 25.1000 -88.3000 35 hurdat_atl main 402 402 O_____________ hurdat_atl AL051920 25.1000 -88.3000 TS 35 0 3 247
1920269N25277 1920 44 NA GM NOT_NAMED 1920-09-27 21:00:00 TS 25.0500 -88.4150 main 391 391 P_____________ AL051920 25.0500 -88.4150 TS 37 0 2 241
1920269N25277 1920 44 NA GM NOT_NAMED 1920-09-28 00:00:00 TS 25.0000 -88.5000 40 hurdat_atl main 391 391 O_____________ hurdat_atl AL051920 25.0000 -88.5000 TS 40 0 2 232
1920269N25277 1920 44 NA GM NOT_NAMED 1920-09-28 03:00:00 TS 24.9500 -88.5575 main 380 380 P_____________ AL051920 24.9500 -88.5575 TS 40 0 1 220
1920269N25277 1920 44 NA GM NOT_NAMED 1920-09-28 06:00:00 TS 24.9000 -88.6000 40 hurdat_atl main 380 368 O_____________ hurdat_atl AL051920 24.9000 -88.6000 TS 40 0 1 213
1920269N25277 1920 44 NA GM NOT_NAMED 1920-09-28 09:00:00 TS 24.8350 -88.6500 main 369 369 P_____________ AL051920 24.8350 -88.6500 TS 42 0 1 220
1920269N25277 1920 44 NA GM NOT_NAMED 1920-09-28 12:00:00 TS 24.8000 -88.7000 45 hurdat_atl main 369 369 O_____________ hurdat_atl AL051920 24.8000 -88.7000 TS 45 0 1 265
1920269N25277 1920 44 NA GM NOT_NAMED 1920-09-28 15:00:00 TS 24.8275 -88.7500 main 369 369 P_____________ AL051920 24.8275 -88.7500 TS 47 0 1 320
1920269N25277 1920 44 NA GM NOT_NAMED 1920-09-28 18:00:00 TS 24.9000 -88.8000 50 hurdat_atl main 380 380 O_____________ hurdat_atl AL051920 24.9000 -88.8000 TS 50 0 2 330
1920269N25277 1920 44 NA GM NOT_NAMED 1920-09-28 21:00:00 TS 24.9850 -88.8500 main 392 392 P_____________ AL051920 24.9850 -88.8500 TS 52 0 2 335
1920269N25277 1920 44 NA GM NOT_NAMED 1920-09-29 00:00:00 TS 25.1000 -88.9000 55 hurdat_atl main 403 403 O_____________ hurdat_atl AL051920 25.1000 -88.9000 TS 55 0 3 337
1920269N25277 1920 44 NA GM NOT_NAMED 1920-09-29 03:00:00 TS 25.2350 -88.9649 main 415 402 P_____________ AL051920 25.2350 -88.9649 TS 57 0 3 344
1920269N25277 1920 44 NA GM NOT_NAMED 1920-09-29 06:00:00 TS 25.4000 -89.0000 60 hurdat_atl main 402 379 O_____________ hurdat_atl AL051920 25.4000 -89.0000 TS 60 0 3 353
1920269N25277 1920 44 NA GM NOT_NAMED 1920-09-29 09:00:00 TS 25.5774 -89.0023 main 379 357 P_____________ AL051920 25.5774 -89.0023 TS 65 1 4 12
1920269N25277 1920 44 NA GM NOT_NAMED 1920-09-29 12:00:00 TS 25.8000 -88.9000 70 hurdat_atl main 357 326 O_____________ hurdat_atl AL051920 25.8000 -88.9000 HU 70 1 6 29
1920269N25277 1920 44 NA GM NOT_NAMED 1920-09-29 15:00:00 TS 26.0695 -88.7044 main 326 298 P_____________ AL051920 26.0695 -88.7044 HU 72 1 8 42
1920269N25277 1920 44 NA GM NOT_NAMED 1920-09-29 18:00:00 TS 26.4000 -88.3000 75 hurdat_atl main 300 282 O_____________ hurdat_atl AL051920 26.4000 -88.3000 HU 75 1 12 53
1920269N25277 1920 44 NA GM NOT_NAMED 1920-09-29 21:00:00 TS 26.7691 -87.6840 main 281 281 P_____________ AL051920 26.7691 -87.6840 HU 70 1 16 59
1920269N25277 1920 44 NA GM NOT_NAMED 1920-09-30 00:00:00 TS 27.2000 -86.8000 65 hurdat_atl main 301 237 O_____________ hurdat_atl AL051920 27.2000 -86.8000 HU 65 1 20 63
1920269N25277 1920 44 NA GM NOT_NAMED 1920-09-30 03:00:00 TS 27.6449 -85.7212 main 236 160 P_____________ AL051920 27.6449 -85.7212 HU 60 0 24 65
1920269N25277 1920 44 NA GM NOT_NAMED 1920-09-30 06:00:00 TS 28.2000 -84.4000 55 hurdat_atl main 150 22 O_____________ hurdat_atl AL051920 28.2000 -84.4000 TS 55 0 28 63
1920269N25277 1920 44 NA GM NOT_NAMED 1920-09-30 09:00:00 TS 28.9000 -82.9000 55 hurdat_atl main 14 0 O_____________ hurdat_atl AL051920 28.9000 -82.9000 L TS 55 0 29 63
1920269N25277 1920 44 NA NA NOT_NAMED 1920-09-30 12:00:00 ET 29.5000 -81.5000 45 hurdat_atl main 0 0 O_____________ hurdat_atl AL051920 29.5000 -81.5000 EX 45 -4 30 63
1920269N25277 1920 44 NA NA NOT_NAMED 1920-09-30 15:00:00 ET 30.2473 -79.8558 main 141 141 P_____________ AL051920 30.2473 -79.8558 EX 45 -4 34 62
1920269N25277 1920 44 NA NA NOT_NAMED 1920-09-30 18:00:00 ET 31.1000 -78.0000 45 hurdat_atl main 249 O_____________ hurdat_atl AL051920 31.1000 -78.0000 EX 45 -4 36 62

About IBTrACS Database

This database is a web-friendly format of International Best Track Archive for Climate Stewardship (IBTrACS), a global best track data archive curated by NOAA dating back to 1842.

Updated: 2021-10-25